createdAt,value
2024-01-12T00:02:08.599Z,-3.99
2024-01-12T00:05:12.092Z,-4.06
2024-01-12T00:08:16.561Z,-4.08
2024-01-12T00:11:20.045Z,-4.07
2024-01-12T00:14:23.436Z,-4.01
2024-01-12T00:17:29.414Z,-3.92
2024-01-12T00:20:33.462Z,-3.97
2024-01-12T00:23:36.874Z,-4.02
2024-01-12T00:26:40.227Z,-4.11
2024-01-12T00:29:43.873Z,-4.18
2024-01-12T00:32:50.049Z,-4.05
2024-01-12T00:35:53.724Z,-4.04
2024-01-12T00:38:56.825Z,-4.12
2024-01-12T00:42:00.296Z,-4.19
2024-01-12T00:45:05.406Z,-4.19
2024-01-12T00:48:09.636Z,-4.24
2024-01-12T00:51:15.131Z,-4.26
2024-01-12T00:54:24.367Z,-4.21
2024-01-12T00:57:27.509Z,-4.19
2024-01-12T01:00:32.486Z,-4.19
2024-01-12T01:03:39.372Z,-4.29
2024-01-12T01:06:42.976Z,-4.40
2024-01-12T01:09:46.018Z,-4.42
2024-01-12T01:12:49.279Z,-4.38
2024-01-12T01:15:52.247Z,-4.48
2024-01-12T01:18:55.701Z,-4.46
2024-01-12T01:22:01.122Z,-4.44
2024-01-12T01:25:06.042Z,-4.51
2024-01-12T01:28:09.182Z,-4.50
2024-01-12T01:31:13.596Z,-4.56
2024-01-12T01:34:17.376Z,-4.49
2024-01-12T01:37:28.301Z,-4.41
2024-01-12T01:40:31.661Z,-4.17
2024-01-12T01:43:36.005Z,-4.14
2024-01-12T01:46:39.051Z,-4.04
2024-01-12T01:49:45.664Z,-4.05
2024-01-12T01:52:48.733Z,-4.08
2024-01-12T01:55:52.187Z,-3.95
2024-01-12T01:58:55.299Z,-4.05
2024-01-12T02:01:59.838Z,-4.10
2024-01-12T02:05:04.542Z,-4.20
2024-01-12T02:08:08.336Z,-4.27
2024-01-12T02:11:11.541Z,-4.37
2024-01-12T02:14:14.794Z,-4.37
2024-01-12T02:17:21.716Z,-4.22
2024-01-12T02:20:24.872Z,-4.12
2024-01-12T02:23:28.268Z,-4.05
2024-01-12T02:26:31.286Z,-4.15
2024-01-12T02:29:34.635Z,-4.15
2024-01-12T02:32:39.577Z,-4.25
2024-01-12T02:35:44.540Z,-4.34
2024-01-12T02:38:50.310Z,-4.42
2024-01-12T02:41:55.959Z,-4.46
2024-01-12T02:44:58.953Z,-4.57
2024-01-12T02:48:04.217Z,-4.60
2024-01-12T02:51:08.624Z,-4.70
2024-01-12T02:54:12.022Z,-4.81
2024-01-12T02:57:15.362Z,-4.81
2024-01-12T03:00:18.993Z,-4.90
2024-01-12T03:03:23.093Z,-4.87
2024-01-12T03:06:26.503Z,-4.96
2024-01-12T03:09:29.703Z,-4.97
2024-01-12T03:12:33.017Z,-4.97
2024-01-12T03:15:38.455Z,-4.97
2024-01-12T03:18:41.835Z,-5.11
2024-01-12T03:21:45.679Z,-5.03
2024-01-12T03:24:49.904Z,-5.00
2024-01-12T03:27:52.839Z,-5.00
2024-01-12T03:30:56.810Z,-5.06
2024-01-12T03:34:00.534Z,-5.04
2024-01-12T03:37:04.158Z,-5.10
2024-01-12T03:40:08.471Z,-5.09
2024-01-12T03:43:12.934Z,-5.06
2024-01-12T03:46:15.956Z,-5.09
2024-01-12T03:49:20.481Z,-5.08
2024-01-12T03:52:23.662Z,-5.04
2024-01-12T03:55:27.261Z,-5.07
2024-01-12T03:58:31.552Z,-5.14
2024-01-12T04:01:34.866Z,-5.10
2024-01-12T04:04:38.141Z,-5.11
2024-01-12T04:07:41.216Z,-5.00
2024-01-12T04:10:46.743Z,-4.98
2024-01-12T04:13:49.815Z,-5.03
2024-01-12T04:16:53.078Z,-5.07
2024-01-12T04:19:56.376Z,-5.22
2024-01-12T04:23:00.108Z,-5.25
2024-01-12T04:26:03.271Z,-5.29
2024-01-12T04:29:07.148Z,-5.28
2024-01-12T04:32:12.254Z,-5.27
2024-01-12T04:35:15.819Z,-5.30
2024-01-12T04:38:20.799Z,-5.19
2024-01-12T04:41:24.242Z,-5.33
2024-01-12T04:44:27.266Z,-5.34
2024-01-12T04:47:31.731Z,-5.31
2024-01-12T04:50:35.228Z,-5.38
2024-01-12T04:53:38.856Z,-5.34
2024-01-12T04:56:42.435Z,-5.38
2024-01-12T04:59:45.865Z,-5.39
2024-01-12T05:02:49.323Z,-5.39
2024-01-12T05:05:52.736Z,-5.42
2024-01-12T05:08:57.554Z,-5.46
2024-01-12T05:12:06.466Z,-5.45
2024-01-12T05:15:10.170Z,-5.42
2024-01-12T05:18:13.651Z,-5.43
2024-01-12T05:21:19.705Z,-5.36
2024-01-12T05:24:23.157Z,-5.37
2024-01-12T05:27:26.794Z,-5.39
2024-01-12T05:30:31.926Z,-5.43
2024-01-12T05:33:37.286Z,-5.40
2024-01-12T05:36:42.130Z,-5.43
2024-01-12T05:39:47.278Z,-5.34
2024-01-12T05:42:50.559Z,-5.30
2024-01-12T05:45:55.741Z,-5.32
2024-01-12T05:49:05.450Z,-5.37
2024-01-12T05:52:10.036Z,-5.48
2024-01-12T05:55:13.352Z,-5.46
2024-01-12T05:58:17.047Z,-5.50
2024-01-12T06:01:21.802Z,-5.48
2024-01-12T06:04:25.985Z,-5.58
2024-01-12T06:07:28.958Z,-5.59
2024-01-12T06:10:32.232Z,-5.50
2024-01-12T06:13:35.241Z,-5.48
2024-01-12T06:16:41.573Z,-5.48
2024-01-12T06:19:44.801Z,-5.41
2024-01-12T06:22:49.346Z,-5.43
2024-01-12T06:25:52.565Z,-5.44
2024-01-12T06:28:55.888Z,-5.49
2024-01-12T06:31:58.822Z,-5.48
2024-01-12T06:35:02.165Z,-5.47
2024-01-12T06:38:05.259Z,-5.45
2024-01-12T06:41:09.533Z,-5.48
2024-01-12T06:44:14.481Z,-5.38
2024-01-12T06:47:17.852Z,-5.32
2024-01-12T06:50:21.851Z,-5.35
2024-01-12T06:53:25.203Z,-5.33
2024-01-12T06:56:28.485Z,-5.37
2024-01-12T06:59:31.863Z,-5.29
2024-01-12T07:02:35.877Z,-5.25
2024-01-12T07:05:39.567Z,-5.19
2024-01-12T07:08:42.658Z,-5.17
2024-01-12T07:11:46.590Z,-5.11
2024-01-12T07:14:50.189Z,-5.02
2024-01-12T07:17:54.211Z,-4.99
2024-01-12T07:20:58.840Z,-4.95
2024-01-12T07:24:03.082Z,-4.87
2024-01-12T07:27:06.744Z,-4.80
2024-01-12T07:30:10.343Z,-4.72
2024-01-12T07:33:14.471Z,-4.67
2024-01-12T07:36:17.861Z,-4.62
2024-01-12T07:39:21.388Z,-4.59
2024-01-12T07:42:28.150Z,-4.47
2024-01-12T07:45:38.854Z,-4.37
2024-01-12T07:48:42.896Z,-4.33
2024-01-12T07:51:50.178Z,-4.28
2024-01-12T07:54:55.182Z,-4.20
2024-01-12T07:58:00.613Z,-4.20
2024-01-12T08:01:08.672Z,-4.28
2024-01-12T08:04:12.137Z,-4.18
2024-01-12T08:07:16.850Z,-4.18
2024-01-12T08:10:21.522Z,-4.26
2024-01-12T08:13:27.728Z,-4.05
2024-01-12T08:16:32.638Z,-3.93
2024-01-12T08:19:38.864Z,-3.85
2024-01-12T08:22:42.463Z,-3.92
2024-01-12T08:25:46.929Z,-3.78
2024-01-12T08:28:56.619Z,-3.59
2024-01-12T08:32:02.272Z,-3.40
2024-01-12T08:35:07.848Z,-3.43
2024-01-12T08:38:13.460Z,-3.27
2024-01-12T08:41:18.563Z,-3.16
2024-01-12T08:44:21.682Z,-3.00
2024-01-12T08:47:25.289Z,-2.72
2024-01-12T08:50:30.824Z,-2.38
2024-01-12T08:53:34.158Z,-2.23
2024-01-12T08:56:36.842Z,-1.96
2024-01-12T08:59:40.238Z,-1.77
2024-01-12T09:02:45.825Z,-1.78
2024-01-12T09:05:49.280Z,-1.50
2024-01-12T09:08:53.319Z,-1.75
2024-01-12T09:11:56.769Z,-1.87
2024-01-12T09:15:03.920Z,-1.64
2024-01-12T09:18:08.364Z,-1.57
2024-01-12T09:21:16.478Z,-1.66
2024-01-12T09:24:19.930Z,-1.56
2024-01-12T09:27:23.133Z,-1.45
2024-01-12T09:30:26.449Z,-1.79
2024-01-12T09:33:31.727Z,-1.43
2024-01-12T09:36:35.038Z,-1.15
2024-01-12T09:39:37.908Z,-1.29
2024-01-12T09:42:43.517Z,-1.10
2024-01-12T09:45:51.912Z,-0.95
2024-01-12T09:48:55.308Z,-1.05
2024-01-12T09:51:59.783Z,-0.86
2024-01-12T09:55:03.204Z,-0.92
2024-01-12T09:58:08.812Z,-1.00
2024-01-12T10:01:13.448Z,-0.73
2024-01-12T10:04:16.843Z,-0.64
2024-01-12T10:07:20.420Z,-0.64
2024-01-12T10:10:25.622Z,-0.56
2024-01-12T10:13:29.421Z,-0.21
2024-01-12T10:16:33.975Z,-0.25
2024-01-12T10:19:37.120Z,-0.33
2024-01-12T10:22:40.352Z,-0.19
2024-01-12T10:25:43.345Z,-0.35
2024-01-12T10:28:46.642Z,-0.17
2024-01-12T10:31:49.668Z,-0.02
2024-01-12T10:34:54.373Z,0.03
2024-01-12T10:38:01.767Z,0.11
2024-01-12T10:41:08.620Z,0.03
2024-01-12T10:44:16.268Z,0.36
2024-01-12T10:47:23.412Z,0.55
2024-01-12T10:50:27.019Z,0.85
2024-01-12T10:53:49.022Z,0.71
2024-01-12T10:56:52.689Z,0.49
2024-01-12T10:59:58.075Z,0.38
2024-01-12T11:03:02.279Z,0.10
2024-01-12T11:06:08.996Z,0.56
2024-01-12T11:09:17.747Z,0.29
2024-01-12T11:12:40.246Z,0.60
2024-01-12T11:15:43.913Z,0.87
2024-01-12T11:18:47.269Z,1.10
2024-01-12T11:21:50.401Z,1.65
2024-01-12T11:24:55.206Z,1.39
2024-01-12T11:28:01.675Z,1.49
2024-01-12T11:31:05.141Z,1.33
2024-01-12T11:34:08.409Z,1.35
2024-01-12T11:37:12.208Z,0.99
2024-01-12T11:40:18.488Z,0.77
2024-01-12T11:43:27.411Z,0.75
2024-01-12T11:46:30.684Z,1.24
2024-01-12T11:49:35.481Z,0.95
2024-01-12T11:52:38.586Z,1.23
2024-01-12T11:55:42.094Z,1.22
2024-01-12T11:58:45.140Z,0.90
2024-01-12T12:01:48.829Z,1.21
2024-01-12T12:04:55.594Z,2.27
2024-01-12T12:08:01.800Z,3.23
2024-01-12T12:11:06.488Z,3.51
2024-01-12T12:14:09.872Z,3.44
2024-01-12T12:17:13.241Z,3.04
2024-01-12T12:20:17.140Z,2.48
2024-01-12T12:23:20.449Z,2.55
2024-01-12T12:26:23.553Z,2.32
2024-01-12T12:29:30.041Z,2.31
2024-01-12T12:32:33.203Z,1.88
2024-01-12T12:35:36.784Z,2.85
2024-01-12T12:38:40.812Z,3.35
2024-01-12T12:41:44.492Z,3.69
2024-01-12T12:44:47.557Z,4.94
2024-01-12T12:47:51.663Z,4.96
2024-01-12T12:50:54.956Z,4.47
2024-01-12T12:53:58.277Z,3.06
2024-01-12T12:57:03.811Z,3.50
2024-01-12T13:00:13.726Z,4.88
2024-01-12T13:03:18.537Z,4.80
2024-01-12T13:06:22.228Z,4.18
2024-01-12T13:09:27.531Z,4.33
2024-01-12T13:12:31.810Z,4.29
2024-01-12T13:15:35.557Z,4.26
2024-01-12T13:18:39.288Z,4.92
2024-01-12T13:21:43.768Z,5.07
2024-01-12T13:24:47.060Z,4.93
2024-01-12T13:27:50.061Z,4.34
2024-01-12T13:30:53.357Z,3.97
2024-01-12T13:33:56.473Z,4.23
2024-01-12T13:37:04.189Z,5.86
2024-01-12T13:40:07.830Z,5.85
2024-01-12T13:43:11.483Z,5.24
2024-01-12T13:46:14.873Z,3.50
2024-01-12T13:49:18.805Z,4.44
2024-01-12T13:52:22.188Z,4.02
2024-01-12T13:55:25.673Z,3.96
2024-01-12T13:58:29.273Z,3.74
2024-01-12T14:01:35.025Z,4.68
2024-01-12T14:04:38.270Z,4.15
2024-01-12T14:07:44.573Z,2.74
2024-01-12T14:10:50.266Z,1.43
2024-01-12T14:13:57.662Z,1.68
2024-01-12T14:17:01.855Z,1.02
2024-01-12T14:20:05.520Z,0.64
2024-01-12T14:23:10.567Z,0.65
2024-01-12T14:26:16.538Z,1.01
2024-01-12T14:29:22.885Z,1.44
2024-01-12T14:32:27.676Z,2.01
2024-01-12T14:35:32.469Z,2.07
2024-01-12T14:38:36.948Z,2.33
2024-01-12T14:41:40.371Z,1.66
2024-01-12T14:44:43.949Z,1.77
2024-01-12T14:47:48.553Z,1.34
2024-01-12T14:50:53.336Z,1.12
2024-01-12T14:53:56.940Z,1.01
2024-01-12T14:57:00.637Z,0.85
2024-01-12T15:00:07.969Z,0.67
2024-01-12T15:03:12.165Z,0.65
2024-01-12T15:06:16.278Z,0.09
2024-01-12T15:09:20.218Z,0.16
2024-01-12T15:12:23.601Z,-0.25
2024-01-12T15:15:27.664Z,-0.17
2024-01-12T15:18:31.461Z,-0.40
2024-01-12T15:21:34.881Z,-0.54
2024-01-12T15:24:38.192Z,-0.35
2024-01-12T15:27:41.152Z,-0.57
2024-01-12T15:30:45.136Z,-0.53
2024-01-12T15:33:49.199Z,-0.63
2024-01-12T15:36:52.588Z,-0.68
2024-01-12T15:39:55.593Z,-0.79
2024-01-12T15:42:58.920Z,-0.82
2024-01-12T15:46:03.775Z,-0.86
2024-01-12T15:49:07.594Z,-0.86
2024-01-12T15:52:14.663Z,-0.88
2024-01-12T15:55:17.988Z,-1.02
2024-01-12T15:58:21.858Z,-1.04
2024-01-12T16:01:26.194Z,-1.22
2024-01-12T16:04:29.796Z,-1.23
2024-01-12T16:07:32.844Z,-1.22
2024-01-12T16:10:38.169Z,-1.27
2024-01-12T16:13:42.224Z,-1.27
2024-01-12T16:16:45.814Z,-1.23
2024-01-12T16:19:50.288Z,-1.25
2024-01-12T16:22:53.966Z,-1.22
2024-01-12T16:25:58.389Z,-1.25
2024-01-12T16:29:01.717Z,-1.15
2024-01-12T16:32:09.117Z,-1.31
2024-01-12T16:35:13.945Z,-1.27
2024-01-12T16:38:20.747Z,-1.42
2024-01-12T16:41:27.720Z,-1.45
2024-01-12T16:44:31.106Z,-1.19
2024-01-12T16:47:34.644Z,-1.38
2024-01-12T16:50:37.766Z,-1.57
2024-01-12T16:53:41.133Z,-1.51
2024-01-12T16:56:44.294Z,-1.50
2024-01-12T16:59:49.168Z,-1.52
2024-01-12T17:02:55.029Z,-1.55
2024-01-12T17:06:01.729Z,-1.60
2024-01-12T17:09:06.239Z,-1.63
2024-01-12T17:12:09.799Z,-1.58
2024-01-12T17:15:17.268Z,-1.50
2024-01-12T17:18:26.397Z,-1.56
2024-01-12T17:21:35.490Z,-1.48
2024-01-12T17:24:38.922Z,-1.56
2024-01-12T17:27:41.893Z,-1.52
2024-01-12T17:30:46.107Z,-1.57
2024-01-12T17:33:51.366Z,-1.42
2024-01-12T17:36:54.358Z,-1.51
2024-01-12T17:39:58.768Z,-1.59
2024-01-12T17:43:02.019Z,-1.48
2024-01-12T17:46:05.032Z,-1.54
2024-01-12T17:49:08.752Z,-1.53
2024-01-12T17:52:11.817Z,-1.59
2024-01-12T17:55:15.116Z,-1.56
2024-01-12T17:58:18.390Z,-1.47
2024-01-12T18:01:22.433Z,-1.73
2024-01-12T18:04:26.070Z,-1.58
2024-01-12T18:07:29.266Z,-1.49
2024-01-12T18:10:32.600Z,-1.60
2024-01-12T18:13:37.234Z,-1.70
2024-01-12T18:16:43.278Z,-1.61
2024-01-12T18:19:48.848Z,-1.57
2024-01-12T18:22:52.749Z,-1.67
2024-01-12T18:25:55.690Z,-1.66
2024-01-12T18:28:59.024Z,-1.73
2024-01-12T18:32:02.332Z,-1.62
2024-01-12T18:35:06.657Z,-1.60
2024-01-12T18:38:11.446Z,-1.67
2024-01-12T18:41:14.834Z,-1.79
2024-01-12T18:44:18.572Z,-1.87
2024-01-12T18:47:22.279Z,-1.95
2024-01-12T18:50:25.380Z,-1.81
2024-01-12T18:53:29.047Z,-1.73
2024-01-12T18:56:32.092Z,-1.78
2024-01-12T18:59:36.780Z,-1.70
2024-01-12T19:02:39.764Z,-1.70
2024-01-12T19:05:47.216Z,-1.63
2024-01-12T19:08:50.412Z,-1.82
2024-01-12T19:11:54.449Z,-2.06
2024-01-12T19:14:57.279Z,-1.85
2024-01-12T19:18:00.631Z,-1.88
2024-01-12T19:21:03.905Z,-1.88
2024-01-12T19:24:07.563Z,-1.89
2024-01-12T19:27:11.257Z,-2.06
2024-01-12T19:30:16.321Z,-2.01
2024-01-12T19:33:19.574Z,-1.95
2024-01-12T19:36:24.195Z,-1.95
2024-01-12T19:39:27.179Z,-2.01
2024-01-12T19:42:30.918Z,-2.13
2024-01-12T19:45:33.930Z,-2.12
2024-01-12T19:48:37.838Z,-2.11
2024-01-12T19:51:41.136Z,-2.32
2024-01-12T19:54:44.448Z,-2.31
2024-01-12T19:57:47.892Z,-2.35
2024-01-12T20:00:51.218Z,-2.44
2024-01-12T20:03:55.414Z,-2.59
2024-01-12T20:06:58.889Z,-2.67
2024-01-12T20:10:05.424Z,-2.78
2024-01-12T20:13:08.440Z,-2.83
2024-01-12T20:16:13.077Z,-2.74
2024-01-12T20:19:16.526Z,-2.83
2024-01-12T20:22:21.147Z,-2.90
2024-01-12T20:25:24.282Z,-2.98
2024-01-12T20:28:28.512Z,-2.98
2024-01-12T20:31:31.628Z,-2.99
2024-01-12T20:34:37.196Z,-3.12
2024-01-12T20:37:40.852Z,-3.00
2024-01-12T20:40:55.893Z,-2.81
2024-01-12T20:43:58.931Z,-2.91
2024-01-12T20:47:02.997Z,-2.82
2024-01-12T20:50:06.845Z,-3.02
2024-01-12T20:53:10.110Z,-3.02
2024-01-12T20:56:13.606Z,-3.02
2024-01-12T20:59:16.984Z,-3.01
2024-01-12T21:02:20.263Z,-2.87
2024-01-12T21:05:23.608Z,-2.91
2024-01-12T21:08:29.291Z,-2.89
2024-01-12T21:11:34.116Z,-2.81
2024-01-12T21:14:37.444Z,-2.91
2024-01-12T21:17:41.806Z,-2.87
2024-01-12T21:20:46.944Z,-3.06
2024-01-12T21:23:50.479Z,-3.03
2024-01-12T21:26:53.857Z,-3.09
2024-01-12T21:29:57.366Z,-3.13
2024-01-12T21:33:00.570Z,-3.26
2024-01-12T21:36:04.137Z,-3.12
2024-01-12T21:39:12.460Z,-3.25
2024-01-12T21:42:16.136Z,-3.20
2024-01-12T21:45:19.245Z,-3.33
2024-01-12T21:48:22.980Z,-3.27
2024-01-12T21:51:26.175Z,-3.26
2024-01-12T21:54:29.501Z,-3.23
2024-01-12T21:57:32.478Z,-3.22
2024-01-12T22:00:35.900Z,-3.25
2024-01-12T22:03:39.429Z,-3.11
2024-01-12T22:06:42.488Z,-3.06
2024-01-12T22:09:46.600Z,-2.97
2024-01-12T22:12:50.887Z,-2.81
2024-01-12T22:15:55.416Z,-2.81
2024-01-12T22:19:00.407Z,-2.79
2024-01-12T22:22:04.128Z,-2.67
2024-01-12T22:25:08.443Z,-2.79
2024-01-12T22:28:12.901Z,-2.69
2024-01-12T22:31:15.902Z,-2.61
2024-01-12T22:34:20.469Z,-2.76
2024-01-12T22:37:23.472Z,-2.66
2024-01-12T22:40:26.783Z,-2.64
2024-01-12T22:43:29.891Z,-2.57
2024-01-12T22:46:33.176Z,-2.55
2024-01-12T22:49:36.301Z,-2.64
2024-01-12T22:52:42.901Z,-2.59
2024-01-12T22:55:46.047Z,-2.65
2024-01-12T22:58:49.723Z,-2.76
2024-01-12T23:01:52.620Z,-2.61
2024-01-12T23:04:57.347Z,-2.52
2024-01-12T23:08:01.866Z,-2.58
2024-01-12T23:11:05.114Z,-2.56
2024-01-12T23:14:08.098Z,-2.46
2024-01-12T23:17:11.444Z,-2.48
2024-01-12T23:20:18.964Z,-2.42
2024-01-12T23:23:23.595Z,-2.51
2024-01-12T23:26:26.862Z,-2.47
2024-01-12T23:29:35.725Z,-2.49
2024-01-12T23:32:49.933Z,-2.53
2024-01-12T23:35:54.862Z,-2.48
2024-01-12T23:38:58.053Z,-2.50
2024-01-12T23:42:01.711Z,-2.55
2024-01-12T23:45:05.202Z,-2.60
2024-01-12T23:48:12.024Z,-2.57
2024-01-12T23:51:18.589Z,-2.53
2024-01-12T23:54:23.639Z,-2.58
2024-01-12T23:57:29.626Z,-2.63
